createdAt,value
2022-08-05T00:00:26.127Z,25.60
2022-08-05T00:01:20.293Z,25.60
2022-08-05T00:01:53.757Z,25.60
2022-08-05T00:02:25.689Z,25.60
2022-08-05T00:02:57.710Z,25.60
2022-08-05T00:03:31.712Z,25.60
2022-08-05T00:04:05.235Z,25.60
2022-08-05T00:04:41.294Z,25.60
2022-08-05T00:06:02.011Z,25.60
2022-08-05T00:06:29.091Z,25.60
2022-08-05T00:06:58.721Z,25.60
2022-08-05T00:08:00.136Z,25.60
2022-08-05T00:08:34.998Z,25.60
2022-08-05T00:09:12.847Z,25.60
2022-08-05T00:09:46.644Z,25.60
2022-08-05T00:10:19.817Z,25.50
2022-08-05T00:11:01.293Z,25.50
2022-08-05T00:11:35.102Z,25.60
2022-08-05T00:12:21.488Z,25.60
2022-08-05T00:12:56.702Z,25.50
2022-08-05T00:13:39.237Z,25.50
2022-08-05T00:14:17.058Z,25.50
2022-08-05T00:14:51.856Z,25.50
2022-08-05T00:15:56.451Z,25.50
2022-08-05T00:16:17.313Z,25.50
2022-08-05T00:17:19.517Z,25.50
2022-08-05T00:17:53.154Z,25.40
2022-08-05T00:18:25.119Z,25.40
2022-08-05T00:18:57.036Z,25.40
2022-08-05T00:19:33.627Z,25.40
2022-08-05T00:20:13.547Z,25.40
2022-08-05T00:20:52.446Z,25.40
2022-08-05T00:21:24.672Z,25.40
2022-08-05T00:22:03.517Z,25.40
2022-08-05T00:22:36.747Z,25.50
2022-08-05T00:23:12.851Z,25.50
2022-08-05T00:24:05.043Z,25.50
2022-08-05T00:24:42.563Z,25.50
2022-08-05T00:25:15.646Z,25.50
2022-08-05T00:25:48.337Z,25.40
2022-08-05T00:26:25.981Z,25.40
2022-08-05T00:26:58.845Z,25.40
2022-08-05T00:27:36.121Z,25.40
2022-08-05T00:28:08.725Z,25.40
2022-08-05T00:28:45.910Z,25.40
2022-08-05T00:29:19.330Z,25.40
2022-08-05T00:29:54.705Z,25.40
2022-08-05T00:30:32.105Z,25.40
2022-08-05T00:31:05.285Z,25.50
2022-08-05T00:31:54.264Z,25.50
2022-08-05T00:32:32.496Z,25.60
2022-08-05T00:34:41.949Z,25.40
2022-08-05T00:34:53.307Z,25.40
2022-08-05T00:35:05.571Z,25.40
2022-08-05T00:35:47.750Z,25.40
2022-08-05T00:37:10.923Z,25.40
2022-08-05T00:37:24.879Z,25.30
2022-08-05T00:37:56.886Z,25.30
2022-08-05T00:38:29.545Z,25.40
2022-08-05T00:39:13.854Z,25.30
2022-08-05T00:39:58.614Z,25.40
2022-08-05T00:40:32.077Z,25.40
2022-08-05T00:41:07.369Z,25.40
2022-08-05T00:41:55.031Z,25.40
2022-08-05T00:42:32.837Z,25.40
2022-08-05T00:43:07.617Z,25.40
2022-08-05T00:43:46.918Z,25.40
2022-08-05T00:44:23.482Z,25.40
2022-08-05T00:45:04.508Z,25.40
2022-08-05T00:45:39.027Z,25.30
2022-08-05T00:46:15.634Z,25.30
2022-08-05T00:46:47.846Z,25.30
2022-08-05T00:47:31.642Z,25.30
2022-08-05T00:48:31.312Z,25.40
2022-08-05T00:49:04.718Z,25.30
2022-08-05T00:49:51.059Z,25.30
2022-08-05T00:50:25.185Z,25.20
2022-08-05T00:50:58.517Z,25.20
2022-08-05T00:51:51.684Z,25.20
2022-08-05T00:52:28.667Z,25.20
2022-08-05T00:53:01.841Z,25.10
2022-08-05T00:53:45.330Z,25.10
2022-08-05T00:54:27.938Z,25.10
2022-08-05T00:55:00.163Z,25.10
2022-08-05T00:55:42.651Z,25.10
2022-08-05T00:56:17.793Z,25.00
2022-08-05T00:56:54.877Z,25.00
2022-08-05T00:57:31.640Z,25.00
2022-08-05T00:58:11.576Z,25.00
2022-08-05T00:58:44.983Z,25.00
2022-08-05T00:59:17.955Z,25.00
2022-08-05T00:59:51.303Z,25.00
2022-08-05T01:00:25.971Z,25.00
2022-08-05T01:00:59.098Z,25.00
2022-08-05T01:01:42.745Z,25.00
2022-08-05T01:02:20.672Z,25.00
2022-08-05T01:02:58.276Z,25.00
2022-08-05T01:03:34.099Z,25.00
2022-08-05T01:04:13.950Z,25.00
2022-08-05T01:04:50.559Z,25.00
2022-08-05T01:05:23.225Z,25.00
2022-08-05T01:05:55.108Z,25.00
2022-08-05T01:06:32.626Z,25.00
2022-08-05T01:07:05.397Z,25.00
2022-08-05T01:07:37.266Z,25.00
2022-08-05T01:08:43.010Z,25.00
2022-08-05T01:09:17.292Z,25.00
2022-08-05T01:09:55.712Z,25.00
2022-08-05T01:10:31.794Z,24.90
2022-08-05T01:11:10.154Z,25.00
2022-08-05T01:11:49.022Z,24.90
2022-08-05T01:12:23.481Z,25.10
2022-08-05T01:13:05.429Z,24.90
2022-08-05T01:13:58.302Z,24.90
2022-08-05T01:14:36.201Z,24.90
2022-08-05T01:15:35.037Z,24.90
2022-08-05T01:16:10.228Z,24.90
2022-08-05T01:16:50.033Z,24.80
2022-08-05T01:17:29.781Z,24.80
2022-08-05T01:18:06.689Z,24.80
2022-08-05T01:18:48.028Z,24.80
2022-08-05T01:19:56.065Z,24.70
2022-08-05T01:20:35.328Z,24.70
2022-08-05T01:21:22.651Z,24.60
2022-08-05T01:22:24.166Z,24.60
2022-08-05T01:23:15.098Z,24.60
2022-08-05T01:24:13.079Z,24.60
2022-08-05T01:24:59.707Z,24.60
2022-08-05T01:25:54.331Z,24.50
2022-08-05T01:26:40.030Z,24.50
2022-08-05T01:27:29.963Z,24.50
2022-08-05T01:28:18.005Z,24.50
2022-08-05T01:28:54.165Z,24.50
2022-08-05T01:29:32.720Z,24.60
2022-08-05T01:30:18.691Z,24.60
2022-08-05T01:30:55.317Z,24.60
2022-08-05T01:31:34.033Z,24.60
2022-08-05T01:32:20.782Z,24.60
2022-08-05T01:32:56.579Z,24.60
2022-08-05T01:33:35.966Z,24.60
2022-08-05T01:34:12.501Z,24.60
2022-08-05T01:34:49.541Z,24.60
2022-08-05T01:35:51.540Z,24.60
2022-08-05T01:36:27.945Z,24.60
2022-08-05T01:37:06.721Z,24.50
2022-08-05T01:37:45.895Z,24.50
2022-08-05T01:38:27.532Z,24.50
2022-08-05T01:39:02.838Z,24.70
2022-08-05T01:39:45.665Z,24.50
2022-08-05T01:40:21.970Z,24.60
2022-08-05T01:41:02.858Z,24.60
2022-08-05T01:41:37.604Z,24.60
2022-08-05T01:42:13.772Z,24.60
2022-08-05T01:42:50.247Z,24.60
2022-08-05T01:43:25.258Z,24.60
2022-08-05T01:43:57.960Z,24.60
2022-08-05T01:44:34.486Z,24.70
2022-08-05T01:45:08.673Z,24.70
2022-08-05T01:45:43.049Z,24.60
2022-08-05T01:46:42.828Z,24.70
2022-08-05T01:47:11.180Z,24.60
2022-08-05T01:47:47.841Z,24.60
2022-08-05T01:48:20.868Z,24.60
2022-08-05T01:48:54.381Z,24.60
2022-08-05T01:50:01.683Z,24.70
2022-08-05T01:50:28.817Z,24.60
2022-08-05T01:51:12.130Z,24.60
2022-08-05T01:51:51.952Z,24.60
2022-08-05T01:52:26.393Z,24.60
2022-08-05T01:53:01.474Z,24.60
2022-08-05T01:53:57.582Z,24.60
2022-08-05T01:54:34.351Z,24.60
2022-08-05T01:55:20.308Z,24.60
2022-08-05T01:55:57.655Z,24.60
2022-08-05T01:58:09.365Z,24.70
2022-08-05T01:58:09.771Z,24.60
2022-08-05T01:58:40.300Z,24.60
2022-08-05T01:59:20.124Z,24.60
2022-08-05T01:59:54.684Z,24.60
2022-08-05T02:00:30.705Z,24.60
2022-08-05T02:01:04.518Z,24.60
2022-08-05T02:01:39.796Z,24.60
2022-08-05T02:02:13.945Z,24.70
2022-08-05T02:02:54.917Z,24.70
2022-08-05T02:03:34.281Z,24.70
2022-08-05T02:04:07.934Z,24.70
2022-08-05T02:04:46.260Z,24.70
2022-08-05T02:05:25.886Z,24.70
2022-08-05T02:06:03.641Z,24.70
2022-08-05T02:06:55.423Z,24.80
2022-08-05T02:07:30.381Z,24.70
2022-08-05T02:08:02.703Z,24.70
2022-08-05T02:08:40.812Z,24.70
2022-08-05T02:09:27.244Z,24.70
2022-08-05T02:10:00.587Z,24.70
2022-08-05T02:10:40.462Z,24.70
2022-08-05T02:11:23.711Z,24.70
2022-08-05T02:12:10.107Z,24.70
2022-08-05T02:12:51.470Z,24.70
2022-08-05T02:13:48.619Z,24.70
2022-08-05T02:14:28.622Z,24.70
2022-08-05T02:15:08.259Z,24.60
2022-08-05T02:15:46.428Z,24.60
2022-08-05T02:16:23.206Z,24.60
2022-08-05T02:16:59.055Z,24.60
2022-08-05T02:18:30.569Z,24.60
2022-08-05T02:18:37.131Z,24.60
2022-08-05T02:19:20.914Z,24.60
2022-08-05T02:20:01.447Z,24.60
2022-08-05T02:20:40.178Z,24.60
2022-08-05T02:21:18.334Z,24.60
2022-08-05T02:21:58.279Z,24.60
2022-08-05T02:22:36.318Z,24.60
2022-08-05T02:23:11.941Z,24.60
2022-08-05T02:23:50.274Z,24.60
2022-08-05T02:24:25.862Z,24.60
2022-08-05T02:25:03.314Z,24.60
2022-08-05T02:25:49.279Z,24.60
2022-08-05T02:26:41.111Z,24.60
2022-08-05T02:27:30.193Z,24.50
2022-08-05T02:28:28.457Z,24.50
2022-08-05T02:29:04.033Z,24.50
2022-08-05T02:29:59.216Z,24.50
2022-08-05T02:30:34.291Z,24.50
2022-08-05T02:31:14.839Z,24.50
2022-08-05T02:31:48.914Z,24.50
2022-08-05T02:32:29.438Z,24.50
2022-08-05T02:33:06.709Z,24.60
2022-08-05T02:33:48.450Z,24.50
2022-08-05T02:34:22.528Z,24.60
2022-08-05T02:34:55.371Z,24.50
2022-08-05T02:35:33.223Z,24.50
2022-08-05T02:36:17.319Z,24.50
2022-08-05T02:36:52.360Z,24.50
2022-08-05T02:37:27.312Z,24.50
2022-08-05T02:38:05.218Z,24.50
2022-08-05T02:38:42.877Z,24.50
2022-08-05T02:39:21.537Z,24.50
2022-08-05T02:39:54.448Z,24.50
2022-08-05T02:40:26.880Z,24.60
2022-08-05T02:41:00.124Z,24.50
2022-08-05T02:42:00.592Z,24.50
2022-08-05T02:42:36.304Z,24.50
2022-08-05T02:43:10.281Z,24.40
2022-08-05T02:44:06.378Z,24.50
2022-08-05T02:44:40.466Z,24.50
2022-08-05T02:45:15.711Z,24.50
2022-08-05T02:45:52.332Z,24.50
2022-08-05T02:46:28.615Z,24.50
2022-08-05T02:47:03.266Z,24.50
2022-08-05T02:47:58.610Z,24.50
2022-08-05T02:48:31.029Z,24.50
2022-08-05T02:49:04.200Z,24.40
2022-08-05T02:49:40.551Z,24.40
2022-08-05T02:50:14.569Z,24.40
2022-08-05T02:50:51.703Z,24.40
2022-08-05T02:51:48.457Z,24.40
2022-08-05T02:52:29.832Z,24.40
2022-08-05T02:53:03.797Z,24.40
2022-08-05T02:53:39.361Z,24.40
2022-08-05T02:54:35.958Z,24.40
2022-08-05T02:55:10.890Z,24.40
2022-08-05T02:55:59.505Z,24.40
2022-08-05T02:56:34.220Z,24.40
2022-08-05T02:57:10.068Z,24.40
2022-08-05T02:58:10.938Z,24.40
2022-08-05T02:58:51.467Z,24.40
2022-08-05T02:59:27.742Z,24.40
2022-08-05T02:59:59.802Z,24.40
2022-08-05T03:00:36.345Z,24.40
2022-08-05T03:01:15.412Z,24.40
2022-08-05T03:01:50.775Z,24.40
2022-08-05T03:02:29.802Z,24.40
2022-08-05T03:03:02.764Z,24.40
2022-08-05T03:04:02.613Z,24.40
2022-08-05T03:04:37.277Z,24.40
2022-08-05T03:05:11.560Z,24.40
2022-08-05T03:06:56.334Z,24.40
2022-08-05T03:06:56.815Z,24.40
2022-08-05T03:08:01.429Z,24.40
2022-08-05T03:08:29.566Z,24.40
2022-08-05T03:09:02.351Z,24.40
2022-08-05T03:09:38.392Z,24.40
2022-08-05T03:10:25.616Z,24.40
2022-08-05T03:11:53.642Z,24.40
2022-08-05T03:11:55.639Z,24.40
2022-08-05T03:12:30.898Z,24.40
2022-08-05T03:13:10.959Z,24.40
2022-08-05T03:14:03.438Z,24.30
2022-08-05T03:14:45.707Z,24.30
2022-08-05T03:15:18.083Z,24.30
2022-08-05T03:15:50.914Z,24.30
2022-08-05T03:16:23.787Z,24.30
2022-08-05T03:16:55.953Z,24.30
2022-08-05T03:17:28.801Z,24.30
2022-08-05T03:18:00.640Z,24.30
2022-08-05T03:18:32.977Z,24.30
2022-08-05T03:19:12.709Z,24.30
2022-08-05T03:19:52.126Z,24.30
2022-08-05T03:20:24.494Z,24.30
2022-08-05T03:20:57.682Z,24.30
2022-08-05T03:21:33.154Z,24.30
2022-08-05T03:22:16.606Z,24.20
2022-08-05T03:22:49.972Z,24.20
2022-08-05T03:23:24.171Z,24.20
2022-08-05T03:23:57.266Z,24.20
2022-08-05T03:24:30.774Z,24.20
2022-08-05T03:25:59.769Z,24.20
2022-08-05T03:26:04.308Z,24.20
2022-08-05T03:26:49.406Z,24.20
2022-08-05T03:27:22.161Z,24.20
2022-08-05T03:27:58.983Z,24.20
2022-08-05T03:28:33.033Z,24.20
2022-08-05T03:29:06.409Z,24.20
2022-08-05T03:30:07.439Z,24.20
2022-08-05T03:30:41.126Z,24.20
2022-08-05T03:31:25.888Z,24.10
2022-08-05T03:32:08.715Z,24.10
2022-08-05T03:32:42.163Z,24.00
2022-08-05T03:33:14.874Z,24.00
2022-08-05T03:33:52.732Z,24.00
2022-08-05T03:34:27.185Z,24.00
2022-08-05T03:34:59.393Z,24.10
2022-08-05T03:35:41.295Z,24.10
2022-08-05T03:36:13.733Z,24.00
2022-08-05T03:36:47.150Z,24.10
2022-08-05T03:37:19.823Z,24.10
2022-08-05T03:37:53.519Z,24.10
2022-08-05T03:38:33.330Z,24.10
2022-08-05T03:39:19.890Z,24.10
2022-08-05T03:40:03.833Z,24.10
2022-08-05T03:40:40.818Z,24.10
2022-08-05T03:41:13.739Z,24.00
2022-08-05T03:41:46.975Z,24.00
2022-08-05T03:42:19.538Z,24.00
2022-08-05T03:42:53.017Z,24.00
2022-08-05T03:44:09.203Z,24.00
2022-08-05T03:44:20.211Z,23.90
2022-08-05T03:44:52.134Z,23.90
2022-08-05T03:45:24.406Z,23.90
2022-08-05T03:45:59.089Z,23.80
2022-08-05T03:46:32.602Z,23.80
2022-08-05T03:47:04.858Z,23.80
2022-08-05T03:47:41.421Z,23.80
2022-08-05T03:48:14.047Z,23.80
2022-08-05T03:48:54.770Z,23.90
2022-08-05T03:49:31.103Z,23.80
2022-08-05T03:50:18.679Z,23.80
2022-08-05T03:50:54.686Z,23.80
2022-08-05T03:52:37.213Z,23.80
2022-08-05T03:52:37.323Z,23.80
2022-08-05T03:55:53.227Z,23.70
2022-08-05T03:55:53.615Z,23.70
2022-08-05T03:56:00.973Z,23.70
2022-08-05T03:56:33.107Z,23.80
2022-08-05T03:57:16.499Z,23.80
2022-08-05T03:57:53.514Z,23.80
2022-08-05T03:58:29.543Z,23.80
2022-08-05T03:59:03.834Z,23.80
2022-08-05T03:59:46.842Z,23.80
2022-08-05T04:00:25.774Z,23.90
2022-08-05T04:01:02.038Z,23.90
2022-08-05T04:01:40.860Z,23.90
2022-08-05T04:02:17.538Z,23.90
2022-08-05T04:03:08.884Z,23.90
2022-08-05T04:04:05.360Z,23.90
2022-08-05T04:04:42.793Z,23.90
2022-08-05T04:05:18.850Z,23.90
2022-08-05T04:05:51.717Z,23.90
2022-08-05T04:06:23.965Z,23.90
2022-08-05T04:06:59.836Z,23.90
2022-08-05T04:07:33.622Z,24.00
2022-08-05T04:08:34.667Z,24.00
2022-08-05T04:09:09.369Z,24.00
2022-08-05T04:09:53.270Z,23.90
2022-08-05T04:10:27.543Z,23.90
2022-08-05T04:11:02.678Z,24.00
2022-08-05T04:11:47.621Z,23.90
2022-08-05T04:12:25.776Z,23.90
2022-08-05T04:12:58.996Z,24.00
2022-08-05T04:13:51.171Z,23.90
2022-08-05T04:14:29.467Z,23.90
2022-08-05T04:15:04.680Z,23.90
2022-08-05T04:15:39.878Z,23.80
2022-08-05T04:16:35.298Z,23.80
2022-08-05T04:17:09.115Z,23.80
2022-08-05T04:17:56.118Z,23.80
2022-08-05T04:18:34.554Z,23.80
2022-08-05T04:19:10.497Z,23.80
2022-08-05T04:19:44.165Z,23.90
2022-08-05T04:20:23.127Z,23.90
2022-08-05T04:20:56.293Z,23.80
2022-08-05T04:22:10.215Z,23.80
2022-08-05T04:22:21.384Z,23.90
2022-08-05T04:22:53.259Z,23.80
2022-08-05T04:24:06.601Z,23.80
2022-08-05T04:24:22.363Z,23.90
2022-08-05T04:24:54.653Z,23.80
2022-08-05T04:25:58.027Z,23.90
2022-08-05T04:26:19.773Z,23.90
2022-08-05T04:26:51.671Z,23.90
2022-08-05T04:27:33.266Z,23.90
2022-08-05T04:28:17.211Z,23.90
2022-08-05T04:28:51.961Z,23.90
2022-08-05T04:29:24.952Z,23.90
2022-08-05T04:29:59.206Z,23.90
2022-08-05T04:30:37.155Z,23.90
2022-08-05T04:31:10.559Z,23.90
2022-08-05T04:31:43.008Z,23.80
2022-08-05T04:32:20.149Z,23.80
2022-08-05T04:33:02.772Z,23.90
2022-08-05T04:33:54.935Z,23.80
2022-08-05T04:34:33.065Z,23.80
2022-08-05T04:35:17.524Z,23.80
2022-08-05T04:36:15.865Z,23.70
2022-08-05T04:36:45.973Z,23.70
2022-08-05T04:37:21.268Z,23.70
2022-08-05T04:38:15.641Z,23.60
2022-08-05T04:38:51.059Z,23.50
2022-08-05T04:39:24.059Z,23.50
2022-08-05T04:39:57.545Z,23.40
2022-08-05T04:40:29.565Z,23.40
2022-08-05T04:41:01.386Z,23.40
2022-08-05T04:41:37.236Z,23.40
2022-08-05T04:42:09.929Z,23.40
2022-08-05T04:42:41.817Z,23.30
2022-08-05T04:43:16.482Z,23.30
2022-08-05T04:43:52.916Z,23.30
2022-08-05T04:44:29.846Z,23.30
2022-08-05T04:45:03.348Z,23.30
2022-08-05T04:45:48.160Z,23.40
2022-08-05T04:46:27.786Z,23.40
2022-08-05T04:47:09.421Z,23.40
2022-08-05T04:47:42.896Z,23.40
2022-08-05T04:48:27.198Z,23.40
2022-08-05T04:49:00.096Z,23.40
2022-08-05T04:49:38.925Z,23.40
2022-08-05T04:50:37.422Z,23.40
2022-08-05T04:51:18.051Z,23.40
2022-08-05T04:51:50.904Z,23.40
2022-08-05T04:52:33.435Z,23.40
2022-08-05T04:53:06.546Z,23.40
2022-08-05T04:53:41.349Z,23.40
2022-08-05T04:54:14.729Z,23.50
2022-08-05T04:54:46.765Z,23.50
2022-08-05T04:55:23.930Z,23.50
2022-08-05T04:56:34.244Z,23.50
2022-08-05T04:57:07.605Z,23.60
2022-08-05T04:57:39.498Z,23.60
2022-08-05T04:58:21.741Z,23.60
2022-08-05T04:58:53.805Z,23.60
2022-08-05T04:59:39.168Z,23.60
2022-08-05T05:00:14.411Z,23.70
2022-08-05T05:00:50.723Z,23.70
2022-08-05T05:02:06.234Z,23.70
2022-08-05T05:02:36.947Z,23.70
2022-08-05T05:03:08.618Z,23.80
2022-08-05T05:03:42.833Z,23.80
2022-08-05T05:04:14.868Z,23.80
2022-08-05T05:04:49.928Z,23.90
2022-08-05T05:05:28.216Z,23.90
2022-08-05T05:06:40.698Z,23.90
2022-08-05T05:06:57.677Z,24.00
2022-08-05T05:07:32.234Z,24.00
2022-08-05T05:08:14.117Z,24.00
2022-08-05T05:08:58.413Z,24.10
2022-08-05T05:09:33.417Z,24.10
2022-08-05T05:10:09.287Z,24.10
2022-08-05T05:10:47.211Z,24.10
2022-08-05T05:11:42.136Z,24.10
2022-08-05T05:12:20.425Z,24.20
2022-08-05T05:12:54.109Z,24.20
2022-08-05T05:13:26.960Z,24.30
2022-08-05T05:14:04.335Z,24.30
2022-08-05T05:14:49.256Z,24.30
2022-08-05T05:15:56.494Z,24.50
2022-08-05T05:16:16.725Z,24.30
2022-08-05T05:16:51.701Z,24.40
2022-08-05T05:17:56.729Z,24.40
2022-08-05T05:18:31.601Z,24.40
2022-08-05T05:19:19.530Z,24.40
2022-08-05T05:19:56.791Z,24.50
2022-08-05T05:20:29.048Z,24.50
2022-08-05T05:21:03.101Z,24.50
2022-08-05T05:21:35.287Z,24.60
2022-08-05T05:22:24.152Z,24.60
2022-08-05T05:23:08.011Z,24.60
2022-08-05T05:24:03.991Z,24.70
2022-08-05T05:24:56.302Z,24.70
2022-08-05T05:25:40.623Z,24.70
2022-08-05T05:26:14.169Z,24.80
2022-08-05T05:26:47.243Z,24.80
2022-08-05T05:27:23.895Z,24.80
2022-08-05T05:27:57.021Z,24.80
2022-08-05T05:28:29.018Z,24.80
2022-08-05T05:29:02.149Z,24.80
2022-08-05T05:30:03.542Z,24.80
2022-08-05T05:30:31.378Z,24.80
2022-08-05T05:31:08.801Z,24.80
2022-08-05T05:31:42.445Z,24.90
2022-08-05T05:32:18.319Z,24.90
2022-08-05T05:32:51.507Z,24.90
2022-08-05T05:33:24.009Z,24.90
2022-08-05T05:34:01.735Z,24.90
2022-08-05T05:34:36.085Z,24.90
2022-08-05T05:35:10.103Z,24.90
2022-08-05T05:35:51.822Z,25.00
2022-08-05T05:36:23.775Z,25.00
2022-08-05T05:37:00.302Z,25.00
2022-08-05T05:37:58.978Z,25.00
2022-08-05T05:38:27.472Z,25.00
2022-08-05T05:39:00.663Z,25.00
2022-08-05T05:39:36.171Z,25.10
2022-08-05T05:40:09.861Z,25.10
2022-08-05T05:40:49.464Z,25.10
2022-08-05T05:41:23.041Z,25.20
2022-08-05T05:41:55.853Z,25.20
2022-08-05T05:42:29.373Z,25.30
2022-08-05T05:43:02.006Z,25.20
2022-08-05T05:43:57.906Z,25.20
2022-08-05T05:44:37.007Z,25.20
2022-08-05T05:45:10.181Z,25.30
2022-08-05T05:45:48.292Z,25.30
2022-08-05T05:46:21.892Z,25.30
2022-08-05T05:46:55.225Z,25.30
2022-08-05T05:47:30.497Z,25.30
2022-08-05T05:48:27.639Z,25.30
2022-08-05T05:48:59.757Z,25.30
2022-08-05T05:49:39.378Z,25.30
2022-08-05T05:50:16.244Z,25.40
2022-08-05T05:50:52.155Z,25.40
2022-08-05T05:51:27.963Z,25.30
2022-08-05T05:52:00.086Z,25.40
2022-08-05T05:52:34.585Z,25.40
2022-08-05T05:53:22.049Z,25.40
2022-08-05T05:53:58.843Z,25.40
2022-08-05T05:54:49.646Z,25.40
2022-08-05T05:55:22.838Z,25.40
2022-08-05T05:56:00.849Z,25.50
2022-08-05T05:56:35.075Z,25.50
2022-08-05T05:57:13.475Z,25.50
2022-08-05T05:57:52.747Z,25.50
2022-08-05T05:58:31.844Z,25.50
2022-08-05T05:59:07.691Z,25.50
2022-08-05T05:59:40.327Z,25.60
2022-08-05T06:00:16.018Z,25.60
2022-08-05T06:00:49.329Z,25.50
2022-08-05T06:01:23.442Z,25.60
2022-08-05T06:01:57.853Z,25.60
2022-08-05T06:02:37.679Z,25.60
2022-08-05T06:03:40.570Z,25.60
2022-08-05T06:04:03.829Z,25.60
2022-08-05T06:04:35.974Z,25.70
2022-08-05T06:05:10.470Z,25.60
2022-08-05T06:05:54.289Z,25.60
2022-08-05T06:06:30.753Z,25.70
2022-08-05T06:07:05.221Z,25.70
2022-08-05T06:07:42.098Z,25.70
2022-08-05T06:08:14.333Z,25.70
2022-08-05T06:09:04.789Z,25.70
2022-08-05T06:09:52.717Z,25.70
2022-08-05T06:10:36.277Z,25.70
2022-08-05T06:11:09.702Z,25.70
2022-08-05T06:12:01.303Z,25.70
2022-08-05T06:12:35.365Z,25.70
2022-08-05T06:13:14.001Z,25.80
2022-08-05T06:13:53.615Z,25.80
2022-08-05T06:14:28.007Z,25.70
2022-08-05T06:15:01.119Z,25.80
2022-08-05T06:16:28.396Z,25.70
2022-08-05T06:16:28.927Z,25.70
2022-08-05T06:17:22.271Z,25.70
2022-08-05T06:17:56.427Z,25.70
2022-08-05T06:18:31.114Z,25.70
2022-08-05T06:19:05.481Z,25.70
2022-08-05T06:19:39.192Z,25.80
2022-08-05T06:20:18.838Z,25.70
2022-08-05T06:20:54.281Z,25.70
2022-08-05T06:21:36.098Z,25.70
2022-08-05T06:22:10.621Z,25.70
2022-08-05T06:22:42.469Z,25.60
2022-08-05T06:23:14.313Z,25.70
2022-08-05T06:23:49.875Z,25.70
2022-08-05T06:24:22.503Z,25.70
2022-08-05T06:24:59.246Z,25.70
2022-08-05T06:26:13.050Z,25.70
2022-08-05T06:26:25.092Z,25.70
2022-08-05T06:26:58.036Z,25.70
2022-08-05T06:28:10.448Z,25.70
2022-08-05T06:28:23.214Z,25.70
2022-08-05T06:29:03.441Z,25.70
2022-08-05T06:29:48.145Z,25.70
2022-08-05T06:30:27.322Z,25.70
2022-08-05T06:31:00.909Z,25.80
2022-08-05T06:31:43.194Z,25.70
2022-08-05T06:32:25.465Z,25.70
2022-08-05T06:32:59.452Z,25.70
2022-08-05T06:33:33.425Z,25.70
2022-08-05T06:34:24.119Z,25.70
2022-08-05T06:34:59.593Z,25.80
2022-08-05T06:36:07.228Z,25.80
2022-08-05T06:36:53.557Z,25.80
2022-08-05T06:37:57.083Z,25.80
2022-08-05T06:38:15.310Z,25.80
2022-08-05T06:38:50.332Z,25.80
2022-08-05T06:39:24.615Z,25.80
2022-08-05T06:40:00.226Z,25.80
2022-08-05T06:40:34.481Z,25.80
2022-08-05T06:41:07.901Z,25.90
2022-08-05T06:41:41.323Z,25.90
2022-08-05T06:42:15.926Z,25.90
2022-08-05T06:42:52.320Z,25.90
2022-08-05T06:43:59.692Z,26.00
2022-08-05T06:44:17.320Z,26.00
2022-08-05T06:44:49.627Z,26.00
2022-08-05T06:45:44.981Z,26.00
2022-08-05T06:46:16.670Z,26.00
2022-08-05T06:46:50.723Z,26.00
2022-08-05T06:48:11.657Z,26.00
2022-08-05T06:48:47.437Z,26.00
2022-08-05T06:49:09.094Z,26.00
2022-08-05T06:50:00.453Z,26.00
2022-08-05T06:50:34.282Z,26.00
2022-08-05T06:51:09.628Z,26.10
2022-08-05T06:51:42.109Z,26.10
2022-08-05T06:52:38.192Z,26.10
2022-08-05T06:53:19.507Z,26.10
2022-08-05T06:53:59.545Z,26.10
2022-08-05T06:54:32.538Z,26.20
2022-08-05T06:55:05.154Z,26.20
2022-08-05T06:55:37.000Z,26.30
2022-08-05T06:56:26.103Z,26.30
2022-08-05T06:57:56.770Z,26.30
2022-08-05T06:57:57.786Z,26.40
2022-08-05T06:58:43.831Z,26.40
2022-08-05T06:59:19.648Z,26.40
2022-08-05T06:59:56.460Z,26.50
2022-08-05T07:00:31.284Z,26.50
2022-08-05T07:01:05.407Z,26.60
2022-08-05T07:01:40.732Z,26.60
2022-08-05T07:02:15.239Z,26.60
2022-08-05T07:02:55.990Z,26.70
2022-08-05T07:03:32.693Z,26.70
2022-08-05T07:04:06.018Z,26.70
2022-08-05T07:04:37.889Z,26.70
2022-08-05T07:05:14.385Z,26.70
2022-08-05T07:05:51.064Z,26.70
2022-08-05T07:06:23.973Z,26.70
2022-08-05T07:06:59.550Z,26.70
2022-08-05T07:07:43.038Z,26.80
2022-08-05T07:08:16.231Z,26.80
2022-08-05T07:08:51.696Z,26.80
2022-08-05T07:09:25.103Z,26.70
2022-08-05T07:09:58.504Z,26.70
2022-08-05T07:10:32.406Z,26.70
2022-08-05T07:11:06.143Z,26.70
2022-08-05T07:11:51.427Z,26.80
2022-08-05T07:12:42.037Z,26.70
2022-08-05T07:13:59.391Z,26.80
2022-08-05T07:14:50.294Z,26.70
2022-08-05T07:16:01.149Z,26.70
2022-08-05T07:18:00.373Z,26.70
2022-08-05T07:18:01.162Z,26.70
2022-08-05T07:18:38.616Z,26.70
2022-08-05T07:19:44.333Z,26.70
2022-08-05T07:20:32.848Z,26.70
2022-08-05T07:21:06.870Z,26.70
2022-08-05T07:21:59.770Z,26.70
2022-08-05T07:22:33.137Z,26.70
2022-08-05T07:23:06.978Z,26.70
2022-08-05T07:23:40.581Z,26.70
2022-08-05T07:24:22.069Z,26.70
2022-08-05T07:24:54.898Z,26.70
2022-08-05T07:25:55.948Z,26.70
2022-08-05T07:26:22.890Z,26.80
2022-08-05T07:26:58.505Z,26.80
2022-08-05T07:27:59.616Z,26.80
2022-08-05T07:28:26.235Z,26.80
2022-08-05T07:28:58.114Z,26.80
2022-08-05T07:30:28.052Z,26.90
2022-08-05T07:30:30.608Z,26.90
2022-08-05T07:31:05.209Z,26.90
2022-08-05T07:31:53.943Z,26.90
2022-08-05T07:32:27.667Z,26.90
2022-08-05T07:33:00.237Z,27.00
2022-08-05T07:33:36.577Z,27.00
2022-08-05T07:34:10.802Z,27.00
2022-08-05T07:34:45.889Z,26.90
2022-08-05T07:36:03.188Z,26.90
2022-08-05T07:36:20.820Z,26.90
2022-08-05T07:36:54.484Z,27.00
2022-08-05T07:37:29.202Z,26.90
2022-08-05T07:38:12.370Z,26.90
2022-08-05T07:39:03.271Z,26.90
2022-08-05T07:40:26.378Z,26.80
2022-08-05T07:40:32.081Z,26.80
2022-08-05T07:41:35.067Z,26.80
2022-08-05T07:42:13.011Z,26.70
2022-08-05T07:42:47.679Z,26.70
2022-08-05T07:43:21.178Z,26.60
2022-08-05T07:43:56.472Z,26.50
2022-08-05T07:44:29.743Z,26.70
2022-08-05T07:45:01.646Z,26.50
2022-08-05T07:45:57.365Z,26.50
2022-08-05T07:46:26.922Z,26.50
2022-08-05T07:46:58.851Z,26.50
2022-08-05T07:47:42.583Z,26.50
2022-08-05T07:48:15.557Z,26.50
2022-08-05T07:49:07.987Z,26.60
2022-08-05T07:49:43.563Z,26.60
2022-08-05T07:50:26.752Z,26.50
2022-08-05T07:51:04.466Z,26.60
2022-08-05T07:51:56.757Z,26.50
2022-08-05T07:52:28.661Z,26.50
2022-08-05T07:53:00.941Z,26.50
2022-08-05T07:53:36.849Z,26.50
2022-08-05T07:54:31.667Z,26.50
2022-08-05T07:55:15.837Z,26.50
2022-08-05T07:56:05.142Z,26.50
2022-08-05T07:57:00.543Z,26.50
2022-08-05T07:57:51.298Z,26.50
2022-08-05T07:58:55.102Z,26.40
2022-08-05T07:59:16.258Z,26.40
2022-08-05T07:59:48.828Z,26.40
2022-08-05T08:00:21.052Z,26.50
2022-08-05T08:00:54.472Z,26.40
2022-08-05T08:01:27.665Z,26.30
2022-08-05T08:02:02.363Z,26.30
2022-08-05T08:03:15.046Z,26.30
2022-08-05T08:03:44.079Z,26.40
2022-08-05T08:04:17.800Z,26.30
2022-08-05T08:05:07.957Z,26.30
2022-08-05T08:05:49.306Z,26.30
2022-08-05T08:06:21.787Z,26.40
2022-08-05T08:07:01.110Z,26.20
2022-08-05T08:07:39.726Z,26.20
2022-08-05T08:08:30.460Z,26.20
2022-08-05T08:09:02.325Z,26.20
2022-08-05T08:09:35.291Z,26.20
2022-08-05T08:10:10.471Z,26.20
2022-08-05T08:10:42.419Z,26.20
2022-08-05T08:11:27.780Z,26.20
2022-08-05T08:12:37.448Z,26.20
2022-08-05T08:13:06.792Z,26.30
2022-08-05T08:13:49.504Z,26.30
2022-08-05T08:14:33.077Z,26.30
2022-08-05T08:15:13.879Z,26.30
2022-08-05T08:16:35.578Z,26.30
2022-08-05T08:16:50.489Z,26.30
2022-08-05T08:17:23.511Z,26.30
2022-08-05T08:17:55.733Z,26.30
2022-08-05T08:18:34.716Z,26.40
2022-08-05T08:19:09.436Z,26.40
2022-08-05T08:20:42.703Z,26.40
2022-08-05T08:21:02.320Z,26.40
2022-08-05T08:21:35.611Z,26.40
2022-08-05T08:22:09.177Z,26.40
2022-08-05T08:22:42.123Z,26.30
2022-08-05T08:24:02.972Z,26.30
2022-08-05T08:24:13.525Z,26.30
2022-08-05T08:24:51.592Z,26.30
2022-08-05T08:25:27.158Z,26.30
2022-08-05T08:26:17.009Z,26.30
2022-08-05T08:26:59.261Z,26.40
2022-08-05T08:27:40.445Z,26.30
2022-08-05T08:28:35.562Z,26.30
2022-08-05T08:29:45.466Z,26.30
2022-08-05T08:30:03.909Z,26.40
2022-08-05T08:30:47.931Z,26.30
2022-08-05T08:31:21.866Z,26.30
2022-08-05T08:31:55.439Z,26.30
2022-08-05T08:32:28.418Z,26.40
2022-08-05T08:33:02.714Z,26.40